Terminal Aerodrome Forecast
Issued by NWS

Home | Current Version | Previous Version | Text Only | Print | Product List | Glossary On
Versions: 1 2 3 4 5 6 7 8 9 10 11 12 13 14 15
000
FTUS46 KSGX 200500 CCA
TAFONT
TAF COR
KONT 200539Z 2006/2112 VRB04KT P6SM SCT030 SCT200
     FM202000 25007KT P6SM SCT200
     FM210300 VRB04KT P6SM SCT025
      TEMPO 2108/2112 BKN020=

USA.gov is the U.S. government's official web portal to all federal, state and local government web resources and services.